sensor_id;sensor_type;location;lat;lon;timestamp;temperature;humidity
15949;DHT22;14848;50.954;6.642;2023-04-24T00:00:55;11.00;99.90
15949;DHT22;14848;50.954;6.642;2023-04-24T00:03:26;10.90;99.90
15949;DHT22;14848;50.954;6.642;2023-04-24T00:05:54;10.90;99.90
15949;DHT22;14848;50.954;6.642;2023-04-24T00:08:20;10.90;99.90
15949;DHT22;14848;50.954;6.642;2023-04-24T00:10:46;11.00;99.90
15949;DHT22;14848;50.954;6.642;2023-04-24T00:13:12;10.90;99.90
15949;DHT22;14848;50.954;6.642;2023-04-24T00:15:38;11.00;99.90
15949;DHT22;14848;50.954;6.642;2023-04-24T00:18:03;11.00;99.90
15949;DHT22;14848;50.954;6.642;2023-04-24T00:20:29;11.00;99.90
15949;DHT22;14848;50.954;6.642;2023-04-24T00:22:55;11.10;99.90
15949;DHT22;14848;50.954;6.642;2023-04-24T00:25:21;11.10;99.90
15949;DHT22;14848;50.954;6.642;2023-04-24T00:27:47;11.10;99.90
15949;DHT22;14848;50.954;6.642;2023-04-24T00:30:13;11.10;99.90
15949;DHT22;14848;50.954;6.642;2023-04-24T00:32:38;11.10;99.90
15949;DHT22;14848;50.954;6.642;2023-04-24T00:35:05;11.10;99.90
15949;DHT22;14848;50.954;6.642;2023-04-24T00:37:31;11.00;99.90
15949;DHT22;14848;50.954;6.642;2023-04-24T00:39:57;11.00;99.90
15949;DHT22;14848;50.954;6.642;2023-04-24T00:42:23;11.00;99.90
15949;DHT22;14848;50.954;6.642;2023-04-24T00:44:49;11.00;99.90
15949;DHT22;14848;50.954;6.642;2023-04-24T00:47:15;11.00;99.90
15949;DHT22;14848;50.954;6.642;2023-04-24T00:49:41;11.00;99.90
15949;DHT22;14848;50.954;6.642;2023-04-24T00:52:07;11.00;99.90
15949;DHT22;14848;50.954;6.642;2023-04-24T00:54:34;11.10;99.90
15949;DHT22;14848;50.954;6.642;2023-04-24T00:57:02;11.10;99.90
15949;DHT22;14848;50.954;6.642;2023-04-24T00:59:28;11.00;99.90
15949;DHT22;14848;50.954;6.642;2023-04-24T01:01:54;11.00;99.90
15949;DHT22;14848;50.954;6.642;2023-04-24T01:04:20;11.00;99.90
15949;DHT22;14848;50.954;6.642;2023-04-24T01:06:46;11.00;99.90
15949;DHT22;14848;50.954;6.642;2023-04-24T01:09:14;11.00;99.90
15949;DHT22;14848;50.954;6.642;2023-04-24T01:11:41;10.90;99.90
15949;DHT22;14848;50.954;6.642;2023-04-24T01:14:08;10.80;99.90
15949;DHT22;14848;50.954;6.642;2023-04-24T01:16:34;10.70;99.90
15949;DHT22;14848;50.954;6.642;2023-04-24T01:19:01;10.50;99.90
15949;DHT22;14848;50.954;6.642;2023-04-24T01:21:28;9.90;99.90
15949;DHT22;14848;50.954;6.642;2023-04-24T01:23:56;10.20;99.90
15949;DHT22;14848;50.954;6.642;2023-04-24T01:26:22;10.00;99.90
15949;DHT22;14848;50.954;6.642;2023-04-24T01:28:48;9.90;99.90
15949;DHT22;14848;50.954;6.642;2023-04-24T01:36:10;9.80;99.90
15949;DHT22;14848;50.954;6.642;2023-04-24T01:38:36;9.60;99.90
15949;DHT22;14848;50.954;6.642;2023-04-24T01:41:03;9.50;99.90
15949;DHT22;14848;50.954;6.642;2023-04-24T01:43:29;9.50;99.90
15949;DHT22;14848;50.954;6.642;2023-04-24T01:45:55;9.40;99.90
15949;DHT22;14848;50.954;6.642;2023-04-24T01:48:21;9.40;99.90
15949;DHT22;14848;50.954;6.642;2023-04-24T01:50:47;9.40;99.90
15949;DHT22;14848;50.954;6.642;2023-04-24T01:53:13;9.40;99.90
15949;DHT22;14848;50.954;6.642;2023-04-24T01:55:39;9.30;99.90
15949;DHT22;14848;50.954;6.642;2023-04-24T01:58:05;9.30;99.90
15949;DHT22;14848;50.954;6.642;2023-04-24T02:00:31;9.30;99.90
15949;DHT22;14848;50.954;6.642;2023-04-24T02:02:57;9.30;99.90
15949;DHT22;14848;50.954;6.642;2023-04-24T02:05:22;9.30;99.90
15949;DHT22;14848;50.954;6.642;2023-04-24T02:07:48;9.30;99.90
15949;DHT22;14848;50.954;6.642;2023-04-24T02:10:14;10.80;99.90
15949;DHT22;14848;50.954;6.642;2023-04-24T02:12:40;9.30;99.90
15949;DHT22;14848;50.954;6.642;2023-04-24T02:15:05;9.40;99.90
15949;DHT22;14848;50.954;6.642;2023-04-24T02:17:31;9.40;99.90
15949;DHT22;14848;50.954;6.642;2023-04-24T02:19:57;9.50;99.90
15949;DHT22;14848;50.954;6.642;2023-04-24T02:22:23;9.50;99.90
15949;DHT22;14848;50.954;6.642;2023-04-24T02:24:49;9.50;99.90
15949;DHT22;14848;50.954;6.642;2023-04-24T02:27:15;10.20;99.90
15949;DHT22;14848;50.954;6.642;2023-04-24T02:29:40;9.50;99.90
15949;DHT22;14848;50.954;6.642;2023-04-24T02:32:06;9.50;99.90
15949;DHT22;14848;50.954;6.642;2023-04-24T02:34:32;9.50;99.90
15949;DHT22;14848;50.954;6.642;2023-04-24T02:36:58;9.50;99.90
15949;DHT22;14848;50.954;6.642;2023-04-24T02:39:23;9.50;99.90
15949;DHT22;14848;50.954;6.642;2023-04-24T02:41:49;9.50;99.90
15949;DHT22;14848;50.954;6.642;2023-04-24T02:44:15;9.50;99.90
15949;DHT22;14848;50.954;6.642;2023-04-24T02:46:41;9.60;99.90
15949;DHT22;14848;50.954;6.642;2023-04-24T02:49:07;9.60;99.90
15949;DHT22;14848;50.954;6.642;2023-04-24T02:51:33;9.60;99.90
15949;DHT22;14848;50.954;6.642;2023-04-24T02:53:58;9.60;99.90
15949;DHT22;14848;50.954;6.642;2023-04-24T02:56:24;9.60;99.90
15949;DHT22;14848;50.954;6.642;2023-04-24T02:58:50;9.60;99.90
15949;DHT22;14848;50.954;6.642;2023-04-24T03:01:16;9.60;99.90
15949;DHT22;14848;50.954;6.642;2023-04-24T03:03:43;9.60;99.90
15949;DHT22;14848;50.954;6.642;2023-04-24T03:06:09;9.50;99.90
15949;DHT22;14848;50.954;6.642;2023-04-24T03:08:35;9.50;99.90
15949;DHT22;14848;50.954;6.642;2023-04-24T03:11:00;9.60;99.90
15949;DHT22;14848;50.954;6.642;2023-04-24T03:13:26;9.50;99.90
15949;DHT22;14848;50.954;6.642;2023-04-24T03:15:52;9.50;99.90
15949;DHT22;14848;50.954;6.642;2023-04-24T03:18:19;9.50;99.90
15949;DHT22;14848;50.954;6.642;2023-04-24T03:20:48;9.60;99.90
15949;DHT22;14848;50.954;6.642;2023-04-24T03:23:14;9.50;99.90
15949;DHT22;14848;50.954;6.642;2023-04-24T03:25:39;9.50;99.90
15949;DHT22;14848;50.954;6.642;2023-04-24T03:28:06;9.50;99.90
15949;DHT22;14848;50.954;6.642;2023-04-24T03:30:32;9.50;99.90
15949;DHT22;14848;50.954;6.642;2023-04-24T03:32:57;9.50;99.90
15949;DHT22;14848;50.954;6.642;2023-04-24T03:35:23;9.50;99.90
15949;DHT22;14848;50.954;6.642;2023-04-24T03:37:49;9.50;99.90
15949;DHT22;14848;50.954;6.642;2023-04-24T03:40:14;9.50;99.90
15949;DHT22;14848;50.954;6.642;2023-04-24T03:42:40;9.50;99.90
15949;DHT22;14848;50.954;6.642;2023-04-24T03:45:06;9.50;99.90
15949;DHT22;14848;50.954;6.642;2023-04-24T03:47:32;9.50;99.90
15949;DHT22;14848;50.954;6.642;2023-04-24T03:49:58;9.50;99.90
15949;DHT22;14848;50.954;6.642;2023-04-24T03:52:23;9.50;99.90
15949;DHT22;14848;50.954;6.642;2023-04-24T03:54:49;9.50;99.90
15949;DHT22;14848;50.954;6.642;2023-04-24T03:57:15;9.40;99.90
15949;DHT22;14848;50.954;6.642;2023-04-24T03:59:40;9.40;99.90
15949;DHT22;14848;50.954;6.642;2023-04-24T04:02:06;9.40;99.90
15949;DHT22;14848;50.954;6.642;2023-04-24T04:04:32;9.40;99.90
15949;DHT22;14848;50.954;6.642;2023-04-24T04:06:58;9.40;99.90
15949;DHT22;14848;50.954;6.642;2023-04-24T04:09:26;9.40;99.90
15949;DHT22;14848;50.954;6.642;2023-04-24T04:11:52;9.40;99.90
15949;DHT22;14848;50.954;6.642;2023-04-24T04:14:18;9.40;99.90
15949;DHT22;14848;50.954;6.642;2023-04-24T04:16:44;9.40;99.90
15949;DHT22;14848;50.954;6.642;2023-04-24T04:19:10;9.50;99.90
15949;DHT22;14848;50.954;6.642;2023-04-24T04:21:36;9.40;99.90
15949;DHT22;14848;50.954;6.642;2023-04-24T04:24:01;9.50;99.90
15949;DHT22;14848;50.954;6.642;2023-04-24T04:26:27;9.40;99.90
15949;DHT22;14848;50.954;6.642;2023-04-24T04:28:53;9.40;99.90
15949;DHT22;14848;50.954;6.642;2023-04-24T04:31:20;9.40;99.90
15949;DHT22;14848;50.954;6.642;2023-04-24T04:33:46;9.40;99.90
15949;DHT22;14848;50.954;6.642;2023-04-24T04:36:12;9.40;99.90
15949;DHT22;14848;50.954;6.642;2023-04-24T04:38:37;9.40;99.90
15949;DHT22;14848;50.954;6.642;2023-04-24T04:41:03;9.40;99.90
15949;DHT22;14848;50.954;6.642;2023-04-24T04:43:29;9.50;99.90
15949;DHT22;14848;50.954;6.642;2023-04-24T04:45:57;9.40;99.90
15949;DHT22;14848;50.954;6.642;2023-04-24T04:48:23;9.40;99.90
15949;DHT22;14848;50.954;6.642;2023-04-24T04:50:48;9.60;99.90
15949;DHT22;14848;50.954;6.642;2023-04-24T04:53:14;9.40;99.90
15949;DHT22;14848;50.954;6.642;2023-04-24T04:55:40;9.50;99.90
15949;DHT22;14848;50.954;6.642;2023-04-24T04:58:06;9.50;99.90
15949;DHT22;14848;50.954;6.642;2023-04-24T05:00:32;9.40;99.90
15949;DHT22;14848;50.954;6.642;2023-04-24T05:03:01;9.40;99.90
15949;DHT22;14848;50.954;6.642;2023-04-24T05:05:27;9.40;99.90
15949;DHT22;14848;50.954;6.642;2023-04-24T05:07:53;9.50;99.90
15949;DHT22;14848;50.954;6.642;2023-04-24T05:10:19;9.50;99.90
15949;DHT22;14848;50.954;6.642;2023-04-24T05:12:44;9.40;99.90
15949;DHT22;14848;50.954;6.642;2023-04-24T05:15:10;9.50;99.90
15949;DHT22;14848;50.954;6.642;2023-04-24T05:17:36;9.50;99.90
15949;DHT22;14848;50.954;6.642;2023-04-24T05:20:03;9.40;99.90
15949;DHT22;14848;50.954;6.642;2023-04-24T05:22:31;9.40;99.90
15949;DHT22;14848;50.954;6.642;2023-04-24T05:24:56;9.40;99.90
15949;DHT22;14848;50.954;6.642;2023-04-24T05:27:22;9.40;99.90
15949;DHT22;14848;50.954;6.642;2023-04-24T05:29:48;9.30;99.90
15949;DHT22;14848;50.954;6.642;2023-04-24T05:32:14;9.30;99.90
15949;DHT22;14848;50.954;6.642;2023-04-24T05:34:39;9.20;99.90
15949;DHT22;14848;50.954;6.642;2023-04-24T05:37:05;9.20;99.90
15949;DHT22;14848;50.954;6.642;2023-04-24T05:39:34;9.20;99.90
15949;DHT22;14848;50.954;6.642;2023-04-24T05:42:00;9.20;99.90
15949;DHT22;14848;50.954;6.642;2023-04-24T05:44:27;9.20;99.90
15949;DHT22;14848;50.954;6.642;2023-04-24T05:46:53;9.20;99.90
15949;DHT22;14848;50.954;6.642;2023-04-24T05:49:20;9.20;99.90
15949;DHT22;14848;50.954;6.642;2023-04-24T05:51:46;9.20;99.90
15949;DHT22;14848;50.954;6.642;2023-04-24T05:54:11;9.20;99.90
15949;DHT22;14848;50.954;6.642;2023-04-24T05:56:37;9.20;99.90
15949;DHT22;14848;50.954;6.642;2023-04-24T05:59:03;9.10;99.90
15949;DHT22;14848;50.954;6.642;2023-04-24T06:01:29;9.20;99.90
15949;DHT22;14848;50.954;6.642;2023-04-24T06:03:55;9.20;99.90
15949;DHT22;14848;50.954;6.642;2023-04-24T06:06:21;9.20;99.90
15949;DHT22;14848;50.954;6.642;2023-04-24T06:08:46;9.20;99.90
15949;DHT22;14848;50.954;6.642;2023-04-24T06:11:12;9.20;99.90
15949;DHT22;14848;50.954;6.642;2023-04-24T06:13:38;9.20;99.90
15949;DHT22;14848;50.954;6.642;2023-04-24T06:16:04;9.20;99.90
15949;DHT22;14848;50.954;6.642;2023-04-24T06:18:29;9.10;99.90
15949;DHT22;14848;50.954;6.642;2023-04-24T06:20:55;8.80;99.90
15949;DHT22;14848;50.954;6.642;2023-04-24T06:23:21;9.00;99.90
15949;DHT22;14848;50.954;6.642;2023-04-24T06:25:47;8.90;99.90
15949;DHT22;14848;50.954;6.642;2023-04-24T06:28:12;8.90;99.90
15949;DHT22;14848;50.954;6.642;2023-04-24T06:30:38;8.80;99.90
15949;DHT22;14848;50.954;6.642;2023-04-24T06:33:04;8.80;99.90
15949;DHT22;14848;50.954;6.642;2023-04-24T06:35:29;8.80;99.90
15949;DHT22;14848;50.954;6.642;2023-04-24T06:37:55;8.80;99.90
15949;DHT22;14848;50.954;6.642;2023-04-24T06:40:22;8.80;99.90
15949;DHT22;14848;50.954;6.642;2023-04-24T06:42:47;8.80;99.90
15949;DHT22;14848;50.954;6.642;2023-04-24T06:45:13;8.70;99.90
15949;DHT22;14848;50.954;6.642;2023-04-24T06:47:39;8.70;99.90
15949;DHT22;14848;50.954;6.642;2023-04-24T06:50:05;8.70;99.90
15949;DHT22;14848;50.954;6.642;2023-04-24T06:52:31;8.70;99.90
15949;DHT22;14848;50.954;6.642;2023-04-24T06:55:04;8.60;99.90
15949;DHT22;14848;50.954;6.642;2023-04-24T06:57:30;8.60;99.90
15949;DHT22;14848;50.954;6.642;2023-04-24T06:59:56;8.60;99.90
15949;DHT22;14848;50.954;6.642;2023-04-24T07:02:22;8.60;99.90
15949;DHT22;14848;50.954;6.642;2023-04-24T07:04:48;8.60;99.90
15949;DHT22;14848;50.954;6.642;2023-04-24T07:07:14;8.50;99.90
15949;DHT22;14848;50.954;6.642;2023-04-24T07:09:40;8.50;99.90
15949;DHT22;14848;50.954;6.642;2023-04-24T07:12:09;8.50;99.90
15949;DHT22;14848;50.954;6.642;2023-04-24T07:14:39;8.50;99.90
15949;DHT22;14848;50.954;6.642;2023-04-24T07:17:05;8.40;99.90
15949;DHT22;14848;50.954;6.642;2023-04-24T07:19:33;8.30;99.90
15949;DHT22;14848;50.954;6.642;2023-04-24T07:21:58;8.30;99.90
15949;DHT22;14848;50.954;6.642;2023-04-24T07:24:25;8.20;99.90
15949;DHT22;14848;50.954;6.642;2023-04-24T07:26:51;8.30;99.90
15949;DHT22;14848;50.954;6.642;2023-04-24T07:29:18;8.20;99.90
15949;DHT22;14848;50.954;6.642;2023-04-24T07:34:09;8.00;99.90
15949;DHT22;14848;50.954;6.642;2023-04-24T07:36:35;8.00;99.90
15949;DHT22;14848;50.954;6.642;2023-04-24T07:39:04;8.00;99.90
15949;DHT22;14848;50.954;6.642;2023-04-24T07:41:29;7.90;99.90
15949;DHT22;14848;50.954;6.642;2023-04-24T07:43:55;7.80;99.90
15949;DHT22;14848;50.954;6.642;2023-04-24T07:46:21;7.80;99.90
15949;DHT22;14848;50.954;6.642;2023-04-24T07:48:46;7.80;99.90
15949;DHT22;14848;50.954;6.642;2023-04-24T07:51:14;7.70;99.90
15949;DHT22;14848;50.954;6.642;2023-04-24T07:53:39;7.60;99.90
15949;DHT22;14848;50.954;6.642;2023-04-24T07:56:05;7.60;99.90
15949;DHT22;14848;50.954;6.642;2023-04-24T07:58:31;6.60;99.90
15949;DHT22;14848;50.954;6.642;2023-04-24T08:00:56;7.20;99.90
15949;DHT22;14848;50.954;6.642;2023-04-24T08:03:22;7.50;99.90
15949;DHT22;14848;50.954;6.642;2023-04-24T08:05:47;7.50;99.90
15949;DHT22;14848;50.954;6.642;2023-04-24T08:08:13;7.50;99.90
15949;DHT22;14848;50.954;6.642;2023-04-24T08:10:39;7.40;99.90
15949;DHT22;14848;50.954;6.642;2023-04-24T08:13:04;7.40;99.90
15949;DHT22;14848;50.954;6.642;2023-04-24T08:27:40;7.30;99.90
15949;DHT22;14848;50.954;6.642;2023-04-24T08:32:31;7.30;99.90
15949;DHT22;14848;50.954;6.642;2023-04-24T08:34:57;7.30;99.90
15949;DHT22;14848;50.954;6.642;2023-04-24T08:37:23;7.30;99.90
15949;DHT22;14848;50.954;6.642;2023-04-24T08:39:51;7.40;99.90
15949;DHT22;14848;50.954;6.642;2023-04-24T08:42:17;7.40;99.90
15949;DHT22;14848;50.954;6.642;2023-04-24T08:44:43;7.30;99.90
15949;DHT22;14848;50.954;6.642;2023-04-24T08:47:08;7.30;99.90
15949;DHT22;14848;50.954;6.642;2023-04-24T08:49:35;7.40;99.90
15949;DHT22;14848;50.954;6.642;2023-04-24T08:52:01;7.40;99.90
15949;DHT22;14848;50.954;6.642;2023-04-24T08:54:27;7.50;99.90
15949;DHT22;14848;50.954;6.642;2023-04-24T08:56:53;7.50;99.90
15949;DHT22;14848;50.954;6.642;2023-04-24T08:59:18;7.50;99.90
15949;DHT22;14848;50.954;6.642;2023-04-24T09:01:45;7.50;99.90
15949;DHT22;14848;50.954;6.642;2023-04-24T09:04:11;7.60;99.90
15949;DHT22;14848;50.954;6.642;2023-04-24T09:06:39;7.60;99.90
15949;DHT22;14848;50.954;6.642;2023-04-24T09:09:04;7.60;99.90
15949;DHT22;14848;50.954;6.642;2023-04-24T09:11:31;7.70;99.90
15949;DHT22;14848;50.954;6.642;2023-04-24T09:13:57;7.70;99.90
15949;DHT22;14848;50.954;6.642;2023-04-24T09:16:24;7.70;99.90
15949;DHT22;14848;50.954;6.642;2023-04-24T09:18:50;7.70;99.90
15949;DHT22;14848;50.954;6.642;2023-04-24T09:21:16;7.80;99.90
15949;DHT22;14848;50.954;6.642;2023-04-24T09:23:41;7.80;99.90
15949;DHT22;14848;50.954;6.642;2023-04-24T09:26:07;7.90;99.90
15949;DHT22;14848;50.954;6.642;2023-04-24T09:28:37;7.90;99.90
15949;DHT22;14848;50.954;6.642;2023-04-24T09:31:13;8.10;99.90
15949;DHT22;14848;50.954;6.642;2023-04-24T09:33:40;8.00;99.90
15949;DHT22;14848;50.954;6.642;2023-04-24T09:36:05;8.10;99.90
15949;DHT22;14848;50.954;6.642;2023-04-24T09:38:32;8.20;99.90
15949;DHT22;14848;50.954;6.642;2023-04-24T09:41:01;8.40;99.90
15949;DHT22;14848;50.954;6.642;2023-04-24T09:43:28;8.40;99.90
15949;DHT22;14848;50.954;6.642;2023-04-24T09:45:57;8.50;99.90
15949;DHT22;14848;50.954;6.642;2023-04-24T09:48:30;8.60;99.90
15949;DHT22;14848;50.954;6.642;2023-04-24T09:50:56;8.50;99.90
15949;DHT22;14848;50.954;6.642;2023-04-24T09:53:25;8.90;99.90
15949;DHT22;14848;50.954;6.642;2023-04-24T09:55:51;9.00;99.90
15949;DHT22;14848;50.954;6.642;2023-04-24T09:58:18;9.10;99.90
15949;DHT22;14848;50.954;6.642;2023-04-24T10:00:49;9.20;99.90
15949;DHT22;14848;50.954;6.642;2023-04-24T10:03:18;9.20;99.90
15949;DHT22;14848;50.954;6.642;2023-04-24T10:05:44;9.30;99.90
15949;DHT22;14848;50.954;6.642;2023-04-24T10:08:11;9.20;99.90
15949;DHT22;14848;50.954;6.642;2023-04-24T10:10:43;9.20;99.90
15949;DHT22;14848;50.954;6.642;2023-04-24T10:13:09;9.30;99.90
15949;DHT22;14848;50.954;6.642;2023-04-24T10:15:36;9.40;99.90
15949;DHT22;14848;50.954;6.642;2023-04-24T10:18:02;9.60;99.90
15949;DHT22;14848;50.954;6.642;2023-04-24T10:20:29;9.60;99.90
15949;DHT22;14848;50.954;6.642;2023-04-24T10:22:56;9.70;99.90
15949;DHT22;14848;50.954;6.642;2023-04-24T10:25:23;9.80;99.90
15949;DHT22;14848;50.954;6.642;2023-04-24T10:27:49;9.90;99.90
15949;DHT22;14848;50.954;6.642;2023-04-24T10:30:16;9.80;99.90
15949;DHT22;14848;50.954;6.642;2023-04-24T10:32:42;10.00;99.90
15949;DHT22;14848;50.954;6.642;2023-04-24T10:35:08;10.10;99.90
15949;DHT22;14848;50.954;6.642;2023-04-24T10:37:37;10.20;99.90
15949;DHT22;14848;50.954;6.642;2023-04-24T10:40:03;10.40;99.90
15949;DHT22;14848;50.954;6.642;2023-04-24T10:52:16;10.70;99.90
15949;DHT22;14848;50.954;6.642;2023-04-24T10:54:45;10.60;99.90
15949;DHT22;14848;50.954;6.642;2023-04-24T10:59:43;10.40;99.90
15949;DHT22;14848;50.954;6.642;2023-04-24T11:02:09;10.60;99.90
15949;DHT22;14848;50.954;6.642;2023-04-24T11:04:34;10.60;99.90
15949;DHT22;14848;50.954;6.642;2023-04-24T11:07:00;10.60;99.90
15949;DHT22;14848;50.954;6.642;2023-04-24T11:09:35;10.70;99.90
15949;DHT22;14848;50.954;6.642;2023-04-24T11:12:09;10.90;99.90
15949;DHT22;14848;50.954;6.642;2023-04-24T11:17:33;10.70;99.90
15949;DHT22;14848;50.954;6.642;2023-04-24T11:20:07;10.70;99.90
15949;DHT22;14848;50.954;6.642;2023-04-24T11:22:35;10.80;99.90
15949;DHT22;14848;50.954;6.642;2023-04-24T11:25:02;10.80;99.90
15949;DHT22;14848;50.954;6.642;2023-04-24T11:27:42;11.20;99.90
15949;DHT22;14848;50.954;6.642;2023-04-24T11:30:08;11.10;99.90
15949;DHT22;14848;50.954;6.642;2023-04-24T11:32:41;11.10;99.90
15949;DHT22;14848;50.954;6.642;2023-04-24T11:37:40;11.20;99.90
15949;DHT22;14848;50.954;6.642;2023-04-24T11:40:07;11.60;99.90
15949;DHT22;14848;50.954;6.642;2023-04-24T11:42:46;11.60;99.90
15949;DHT22;14848;50.954;6.642;2023-04-24T11:45:13;11.70;99.90
15949;DHT22;14848;50.954;6.642;2023-04-24T11:47:39;11.60;99.90
15949;DHT22;14848;50.954;6.642;2023-04-24T11:50:05;11.70;99.90
15949;DHT22;14848;50.954;6.642;2023-04-24T11:52:33;11.80;99.90
15949;DHT22;14848;50.954;6.642;2023-04-24T11:54:58;11.80;99.90
15949;DHT22;14848;50.954;6.642;2023-04-24T11:57:25;11.70;99.90
15949;DHT22;14848;50.954;6.642;2023-04-24T11:59:53;11.70;99.90
15949;DHT22;14848;50.954;6.642;2023-04-24T12:02:25;11.80;99.90
15949;DHT22;14848;50.954;6.642;2023-04-24T12:04:51;11.90;99.90
15949;DHT22;14848;50.954;6.642;2023-04-24T12:07:17;12.00;99.90
15949;DHT22;14848;50.954;6.642;2023-04-24T12:09:43;12.00;99.90
15949;DHT22;14848;50.954;6.642;2023-04-24T12:17:05;12.10;99.90
15949;DHT22;14848;50.954;6.642;2023-04-24T12:19:31;12.00;99.90
15949;DHT22;14848;50.954;6.642;2023-04-24T12:22:03;12.00;99.90
15949;DHT22;14848;50.954;6.642;2023-04-24T12:24:29;12.10;99.90
15949;DHT22;14848;50.954;6.642;2023-04-24T12:26:55;12.00;99.90
15949;DHT22;14848;50.954;6.642;2023-04-24T12:29:21;11.90;99.90
15949;DHT22;14848;50.954;6.642;2023-04-24T12:31:47;11.70;99.90
15949;DHT22;14848;50.954;6.642;2023-04-24T12:34:19;11.50;99.90
15949;DHT22;14848;50.954;6.642;2023-04-24T12:36:45;11.50;99.90
15949;DHT22;14848;50.954;6.642;2023-04-24T12:39:14;11.60;99.90
15949;DHT22;14848;50.954;6.642;2023-04-24T12:41:48;11.80;99.90
15949;DHT22;14848;50.954;6.642;2023-04-24T12:44:15;12.00;99.90
15949;DHT22;14848;50.954;6.642;2023-04-24T12:46:40;12.20;99.90
15949;DHT22;14848;50.954;6.642;2023-04-24T12:49:06;12.20;99.90
15949;DHT22;14848;50.954;6.642;2023-04-24T12:51:32;11.90;99.90
15949;DHT22;14848;50.954;6.642;2023-04-24T12:53:57;11.90;99.90
15949;DHT22;14848;50.954;6.642;2023-04-24T12:56:23;11.90;99.90
15949;DHT22;14848;50.954;6.642;2023-04-24T12:58:49;12.00;99.90
15949;DHT22;14848;50.954;6.642;2023-04-24T13:01:16;12.10;99.90
15949;DHT22;14848;50.954;6.642;2023-04-24T13:03:42;12.10;99.90
15949;DHT22;14848;50.954;6.642;2023-04-24T13:06:08;12.00;99.90
15949;DHT22;14848;50.954;6.642;2023-04-24T13:08:34;11.90;99.90
15949;DHT22;14848;50.954;6.642;2023-04-24T13:11:00;12.10;99.90
15949;DHT22;14848;50.954;6.642;2023-04-24T13:13:25;11.90;99.90
15949;DHT22;14848;50.954;6.642;2023-04-24T13:15:51;11.80;99.90
15949;DHT22;14848;50.954;6.642;2023-04-24T13:18:16;11.90;99.90
15949;DHT22;14848;50.954;6.642;2023-04-24T13:20:42;12.00;99.90
15949;DHT22;14848;50.954;6.642;2023-04-24T13:23:07;12.40;99.90
15949;DHT22;14848;50.954;6.642;2023-04-24T13:25:35;12.50;99.90
15949;DHT22;14848;50.954;6.642;2023-04-24T13:28:00;12.40;99.90
15949;DHT22;14848;50.954;6.642;2023-04-24T13:30:26;12.40;99.90
15949;DHT22;14848;50.954;6.642;2023-04-24T13:32:51;12.40;99.90
15949;DHT22;14848;50.954;6.642;2023-04-24T13:35:17;12.20;99.90
15949;DHT22;14848;50.954;6.642;2023-04-24T13:37:42;12.10;99.90
15949;DHT22;14848;50.954;6.642;2023-04-24T13:40:08;12.10;99.90
15949;DHT22;14848;50.954;6.642;2023-04-24T13:42:34;12.20;99.90
15949;DHT22;14848;50.954;6.642;2023-04-24T13:45:00;12.30;99.90
15949;DHT22;14848;50.954;6.642;2023-04-24T13:47:25;12.40;99.90
15949;DHT22;14848;50.954;6.642;2023-04-24T13:49:51;12.50;99.90
15949;DHT22;14848;50.954;6.642;2023-04-24T13:52:19;12.40;99.90
15949;DHT22;14848;50.954;6.642;2023-04-24T13:54:45;12.20;99.90
15949;DHT22;14848;50.954;6.642;2023-04-24T13:57:10;12.00;99.90
15949;DHT22;14848;50.954;6.642;2023-04-24T13:59:36;11.80;99.90
15949;DHT22;14848;50.954;6.642;2023-04-24T14:02:02;11.70;99.90
15949;DHT22;14848;50.954;6.642;2023-04-24T14:04:27;11.80;99.90
15949;DHT22;14848;50.954;6.642;2023-04-24T14:06:53;11.80;99.90
15949;DHT22;14848;50.954;6.642;2023-04-24T14:09:19;11.80;99.90
15949;DHT22;14848;50.954;6.642;2023-04-24T14:11:44;11.90;99.90
15949;DHT22;14848;50.954;6.642;2023-04-24T14:14:10;12.00;99.90
15949;DHT22;14848;50.954;6.642;2023-04-24T14:16:36;12.20;99.90
15949;DHT22;14848;50.954;6.642;2023-04-24T14:19:02;12.30;99.90
15949;DHT22;14848;50.954;6.642;2023-04-24T14:21:27;12.20;99.90
15949;DHT22;14848;50.954;6.642;2023-04-24T14:23:53;12.30;99.90
15949;DHT22;14848;50.954;6.642;2023-04-24T14:26:19;12.10;99.90
15949;DHT22;14848;50.954;6.642;2023-04-24T14:28:44;12.00;99.90
15949;DHT22;14848;50.954;6.642;2023-04-24T14:31:10;12.10;99.90
15949;DHT22;14848;50.954;6.642;2023-04-24T14:33:36;12.10;99.90
15949;DHT22;14848;50.954;6.642;2023-04-24T14:36:02;12.20;99.90
15949;DHT22;14848;50.954;6.642;2023-04-24T14:38:28;12.10;99.90
15949;DHT22;14848;50.954;6.642;2023-04-24T14:40:54;13.70;99.90
15949;DHT22;14848;50.954;6.642;2023-04-24T14:43:20;12.30;99.90
15949;DHT22;14848;50.954;6.642;2023-04-24T14:45:45;12.10;99.90
15949;DHT22;14848;50.954;6.642;2023-04-24T14:48:11;12.00;99.90
15949;DHT22;14848;50.954;6.642;2023-04-24T14:50:36;12.00;99.90
15949;DHT22;14848;50.954;6.642;2023-04-24T14:53:02;11.80;99.90
15949;DHT22;14848;50.954;6.642;2023-04-24T14:55:28;11.90;99.90
15949;DHT22;14848;50.954;6.642;2023-04-24T14:57:54;12.10;99.90
15949;DHT22;14848;50.954;6.642;2023-04-24T15:00:20;12.20;99.90
15949;DHT22;14848;50.954;6.642;2023-04-24T15:02:46;10.90;99.90
15949;DHT22;14848;50.954;6.642;2023-04-24T15:05:11;12.40;99.90
15949;DHT22;14848;50.954;6.642;2023-04-24T15:07:37;12.20;99.90
15949;DHT22;14848;50.954;6.642;2023-04-24T15:10:03;12.20;99.90
15949;DHT22;14848;50.954;6.642;2023-04-24T15:12:29;12.30;99.90
15949;DHT22;14848;50.954;6.642;2023-04-24T15:14:55;12.20;99.90
15949;DHT22;14848;50.954;6.642;2023-04-24T15:17:20;12.20;99.90
15949;DHT22;14848;50.954;6.642;2023-04-24T15:19:46;12.30;99.90
15949;DHT22;14848;50.954;6.642;2023-04-24T15:22:11;12.60;99.90
15949;DHT22;14848;50.954;6.642;2023-04-24T15:24:37;12.50;99.90
15949;DHT22;14848;50.954;6.642;2023-04-24T15:27:02;12.40;99.90
15949;DHT22;14848;50.954;6.642;2023-04-24T15:29:28;12.40;99.90
15949;DHT22;14848;50.954;6.642;2023-04-24T15:31:54;12.30;99.90
15949;DHT22;14848;50.954;6.642;2023-04-24T15:34:20;12.40;99.90
15949;DHT22;14848;50.954;6.642;2023-04-24T15:36:46;12.40;99.90
15949;DHT22;14848;50.954;6.642;2023-04-24T15:39:11;12.50;99.90
15949;DHT22;14848;50.954;6.642;2023-04-24T15:41:37;12.60;99.90
15949;DHT22;14848;50.954;6.642;2023-04-24T15:44:03;12.50;99.90
15949;DHT22;14848;50.954;6.642;2023-04-24T15:46:29;12.30;99.90
15949;DHT22;14848;50.954;6.642;2023-04-24T15:48:54;12.00;99.90
15949;DHT22;14848;50.954;6.642;2023-04-24T15:51:20;12.00;99.90
15949;DHT22;14848;50.954;6.642;2023-04-24T15:53:46;12.00;99.90
15949;DHT22;14848;50.954;6.642;2023-04-24T15:56:11;12.10;99.90
15949;DHT22;14848;50.954;6.642;2023-04-24T15:58:37;12.20;99.90
15949;DHT22;14848;50.954;6.642;2023-04-24T16:01:03;12.40;99.90
15949;DHT22;14848;50.954;6.642;2023-04-24T16:03:28;12.10;99.90
15949;DHT22;14848;50.954;6.642;2023-04-24T16:05:54;12.10;99.90
15949;DHT22;14848;50.954;6.642;2023-04-24T16:08:19;12.10;99.90
15949;DHT22;14848;50.954;6.642;2023-04-24T16:10:46;12.20;99.90
15949;DHT22;14848;50.954;6.642;2023-04-24T16:13:12;12.20;99.90
15949;DHT22;14848;50.954;6.642;2023-04-24T16:15:38;12.20;99.90
15949;DHT22;14848;50.954;6.642;2023-04-24T16:18:04;12.30;99.90